Time;durP1;ratioP1;P1;durP2;ratioP2;P2;SDS_P1;SDS_P2;PMS_P1;PMS_P2;Temp;Humidity;BMP_temperature;BMP_pressure;BME280_temperature;BME280_humidity;BME280_pressure;Samples;Min_cycle;Max_cycle;Signal;HPM_P1;HPM_P2
2022/07/12 00:00:34;;;;;;;;;3.00;3.00;;;;;27.29;40.59;101866.03;5054889;28;45977;-75
2022/07/12 00:02:59;;;;;;;;;3.00;3.00;;;;;27.24;40.69;101867.50;5056441;28;45475;-75
2022/07/12 00:05:25;;;;;;;;;3.75;3.00;;;;;27.20;40.67;101863.34;5067766;28;46205;-75
2022/07/12 00:07:50;;;;;;;;;2.75;2.75;;;;;27.17;40.67;101867.22;5074980;28;46086;-75
2022/07/12 00:10:16;;;;;;;;;2.75;2.75;;;;;27.04;40.81;101852.97;5076297;27;45493;-75
2022/07/12 00:12:41;;;;;;;;;3.00;3.00;;;;;27.01;41.23;101854.13;5091885;27;45487;-75
2022/07/12 00:15:07;;;;;;;;;2.00;2.00;;;;;27.00;40.93;101849.69;5076080;28;46176;-71
2022/07/12 00:17:33;;;;;;;;;2.75;2.00;;;;;27.01;40.71;101851.41;5075812;27;45521;-71
2022/07/12 00:19:58;;;;;;;;;2.75;2.75;;;;;27.09;41.01;101875.28;5076107;27;45441;-71
2022/07/12 00:22:24;;;;;;;;;5.00;3.50;;;;;27.09;40.55;101875.28;5076576;27;45558;-71
2022/07/12 00:24:50;;;;;;;;;2.50;2.00;;;;;27.02;40.96;101875.03;5075942;27;47292;-71
2022/07/12 00:27:15;;;;;;;;;1.00;1.00;;;;;27.04;41.06;101883.06;5075592;27;45402;-71
2022/07/12 00:29:40;;;;;;;;;1.50;1.50;;;;;26.99;41.49;101877.19;5074853;28;45691;-71
2022/07/12 00:32:07;;;;;;;;;2.00;2.00;;;;;26.98;41.31;101875.47;5074748;28;45496;-71
2022/07/12 00:34:33;;;;;;;;;2.00;2.00;;;;;26.94;41.15;101869.41;5075798;27;46436;-71
2022/07/12 00:36:58;;;;;;;;;1.75;1.75;;;;;26.92;41.11;101869.56;5074852;27;45859;-71
2022/07/12 00:39:24;;;;;;;;;2.00;2.00;;;;;26.91;41.97;101866.97;5075024;27;45427;-71
2022/07/12 00:41:50;;;;;;;;;3.25;3.00;;;;;26.90;41.61;101867.97;5070618;28;45509;-71
2022/07/12 00:44:15;;;;;;;;;2.00;2.00;;;;;26.83;41.53;101861.38;5071015;27;46164;-71
2022/07/12 00:46:40;;;;;;;;;2.75;1.75;;;;;26.85;41.60;101864.81;5073656;28;45602;-71
2022/07/12 00:49:06;;;;;;;;;3.00;2.00;;;;;26.82;42.02;101863.25;5073414;27;45552;-71
2022/07/12 00:51:32;;;;;;;;;4.25;2.00;;;;;26.78;41.66;101866.41;5075052;28;45574;-71
2022/07/12 00:53:58;;;;;;;;;3.75;3.00;;;;;26.74;42.02;101865.84;5064194;28;45548;-71
2022/07/12 00:56:25;;;;;;;;;3.25;2.00;;;;;26.73;42.29;101855.91;5069172;28;45421;-71
2022/07/12 00:58:50;;;;;;;;;2.00;2.00;;;;;26.71;41.75;101853.34;5078382;28;45567;-71
2022/07/12 01:01:16;;;;;;;;;1.75;1.75;;;;;26.68;41.99;101856.34;5078402;27;45425;-71
2022/07/12 01:03:42;;;;;;;;;2.75;2.75;;;;;26.57;42.39;101840.06;5078397;28;47370;-71
2022/07/12 01:06:08;;;;;;;;;2.25;2.25;;;;;26.58;41.99;101850.03;5078492;28;45459;-70
2022/07/12 01:08:33;;;;;;;;;1.50;1.50;;;;;26.61;42.35;101857.06;5078968;27;45389;-71
2022/07/12 01:11:00;;;;;;;;;1.00;1.00;;;;;26.56;42.04;101848.44;5079180;27;45452;-71
2022/07/12 01:13:25;;;;;;;;;3.00;3.00;;;;;26.61;42.22;101865.28;5078693;27;46324;-71
2022/07/12 01:15:52;;;;;;;;;4.00;3.00;;;;;26.62;41.99;101867.88;5078667;27;45536;-70
2022/07/12 01:18:18;;;;;;;;;3.00;2.00;;;;;26.59;42.58;101861.81;5078964;27;45402;-71
2022/07/12 01:20:44;;;;;;;;;3.00;1.33;;;;;26.56;42.16;101865.72;5079100;27;45770;-71
2022/07/12 01:23:11;;;;;;;;;2.67;2.00;;;;;26.52;42.76;101862.34;5077056;28;47463;-71
2022/07/12 01:25:37;;;;;;;;;2.00;2.00;;;;;26.50;42.48;101863.50;5078459;28;45474;-71
2022/07/12 01:28:03;;;;;;;;;2.33;2.33;;;;;26.49;43.02;101859.06;5078757;27;45446;-71
2022/07/12 01:30:28;;;;;;;;;3.67;3.67;;;;;26.42;42.47;101841.50;5079138;27;45566;-71
2022/07/12 01:32:54;;;;;;;;;1.50;1.50;;;;;26.45;42.38;101849.41;5079454;27;45532;-71
2022/07/12 01:35:21;;;;;;;;;0.50;0.50;;;;;26.44;42.97;101845.81;5078473;27;45413;-71
2022/07/12 01:37:47;;;;;;;;;2.50;2.50;;;;;26.41;43.05;101846.13;5078541;27;45456;-71
2022/07/12 01:40:14;;;;;;;;;2.00;2.00;;;;;26.37;43.36;101841.94;5077617;27;45438;-71
2022/07/12 01:42:40;;;;;;;;;2.00;2.00;;;;;26.29;43.43;101828.09;5076931;28;48243;-70
2022/07/12 01:45:07;;;;;;;;;2.00;2.00;;;;;26.29;43.26;101834.47;5074499;27;45528;-70
2022/07/12 01:47:33;;;;;;;;;3.50;3.25;;;;;26.24;42.96;101842.19;5077292;27;45809;-71
2022/07/12 01:49:59;;;;;;;;;2.00;2.00;;;;;26.12;43.42;101835.16;5078663;27;45474;-70
2022/07/12 01:52:25;;;;;;;;;4.00;3.00;;;;;26.19;43.54;101858.16;5078212;27;46362;-70
2022/07/12 01:54:51;;;;;;;;;3.00;2.00;;;;;26.18;43.15;101853.72;5074315;27;45509;-71
2022/07/12 01:57:16;;;;;;;;;2.00;2.00;;;;;25.97;43.96;101826.50;5058332;28;45768;-71
2022/07/12 01:59:42;;;;;;;;;2.00;2.00;;;;;26.13;43.59;101849.69;5058065;27;45513;-71
2022/07/12 02:02:08;;;;;;;;;3.00;3.00;;;;;26.12;43.93;101857.00;5057809;28;45493;-71
2022/07/12 02:04:35;;;;;;;;;1.00;1.00;;;;;26.08;44.01;101855.56;5062873;28;45677;-71
2022/07/12 02:07:03;;;;;;;;;1.75;1.75;;;;;26.01;43.81;101852.56;5077369;27;45388;-71
2022/07/12 02:09:28;;;;;;;;;1.00;1.00;;;;;25.97;43.78;101839.31;5077948;27;45381;-71
2022/07/12 02:11:54;;;;;;;;;2.00;2.00;;;;;26.08;43.75;101852.84;5077519;27;46989;-71
2022/07/12 02:14:19;;;;;;;;;2.00;2.00;;;;;25.99;44.12;101842.75;5090169;27;45603;-71
2022/07/12 02:16:45;;;;;;;;;2.00;2.00;;;;;26.06;43.66;101854.88;5056543;28;45354;-71
2022/07/12 02:19:12;;;;;;;;;3.00;3.00;;;;;25.96;44.06;101838.44;5058045;28;45463;-71
2022/07/12 02:21:38;;;;;;;;;2.67;2.33;;;;;26.03;44.19;101858.72;5056333;28;47380;-71
2022/07/12 02:24:04;;;;;;;;;3.25;2.75;;;;;26.02;43.70;101854.28;5057471;28;45482;-71
2022/07/12 02:26:30;;;;;;;;;2.00;2.00;;;;;26.00;43.65;101847.22;5057887;28;45531;-71
2022/07/12 02:28:56;;;;;;;;;3.25;2.25;;;;;25.92;44.21;101842.47;5057971;28;45543;-71
2022/07/12 02:31:21;;;;;;;;;3.00;3.00;;;;;25.92;44.26;101853.41;5057702;28;46347;-71
2022/07/12 02:33:46;;;;;;;;;2.75;2.75;;;;;25.82;44.25;101834.19;5056115;28;45482;-71
2022/07/12 02:36:12;;;;;;;;;4.00;4.00;;;;;25.87;44.35;101853.81;5056283;28;45574;-71
2022/07/12 02:38:37;;;;;;;;;2.75;2.75;;;;;25.85;44.23;101855.78;5057719;28;45807;-71
2022/07/12 02:41:03;;;;;;;;;4.00;3.00;;;;;25.79;44.60;101850.88;5056956;28;46227;-71
2022/07/12 02:43:30;;;;;;;;;2.00;2.00;;;;;25.83;44.64;101855.06;5057430;28;45471;-71
2022/07/12 02:46:06;;;;;;;;;3.00;3.00;;;;;25.79;44.83;101858.22;5077626;27;45414;-71
2022/07/12 02:48:32;;;;;;;;;2.00;2.00;;;;;25.73;44.78;101862.38;5061562;27;45481;-71
2022/07/12 02:50:59;;;;;;;;;2.50;2.50;;;;;25.75;44.60;101864.94;5057082;28;45547;-70
2022/07/12 02:53:24;;;;;;;;;3.25;3.25;;;;;25.73;44.93;101866.94;5056840;28;45536;-71
2022/07/12 02:55:49;;;;;;;;;3.25;3.00;;;;;25.67;45.10;101858.31;5075846;27;45418;-71
2022/07/12 02:58:15;;;;;;;;;3.00;3.00;;;;;25.63;44.91;101862.31;5077697;28;45468;-71
2022/07/12 03:00:41;;;;;;;;;3.00;3.00;;;;;25.51;45.12;101846.19;5076990;27;46445;-71
2022/07/12 03:03:07;;;;;;;;;3.00;3.00;;;;;25.59;45.61;101866.34;5077229;27;45475;-71
2022/07/12 03:05:34;;;;;;;;;5.50;3.00;;;;;25.56;45.38;101872.06;5076248;27;45613;-71
2022/07/12 03:07:59;;;;;;;;;5.00;5.00;;;;;25.51;45.73;101859.84;5077323;27;45524;-71
2022/07/12 03:10:25;;;;;;;;;3.25;3.25;;;;;25.50;45.80;101856.25;5075793;27;45836;-71
2022/07/12 03:12:50;;;;;;;;;3.50;3.50;;;;;25.46;45.09;101860.25;5067038;27;45687;-71
2022/07/12 03:15:16;;;;;;;;;3.00;3.00;;;;;25.26;45.67;101834.72;5045758;28;45473;-75
2022/07/12 03:17:42;;;;;;;;;3.75;3.25;;;;;25.26;45.73;101832.88;5056967;28;45647;-75
2022/07/12 03:20:11;;;;;;;;;2.50;2.50;;;;;25.45;45.94;101861.22;5036667;28;46560;-75
2022/07/12 03:22:36;;;;;;;;;2.00;2.00;;;;;25.39;45.71;101859.94;5036599;28;45421;-75
2022/07/12 03:25:02;;;;;;;;;3.75;3.50;;;;;25.41;45.44;101859.81;5056601;28;45531;-75
2022/07/12 03:27:27;;;;;;;;;4.00;3.00;;;;;25.41;45.75;101859.81;5054473;28;45439;-75
2022/07/12 03:29:52;;;;;;;;;4.50;4.00;;;;;25.33;45.77;101854.13;5038301;28;47866;-75
2022/07/12 03:32:19;;;;;;;;;4.00;4.00;;;;;25.36;46.10;101862.94;5037715;28;45388;-75
2022/07/12 03:34:44;;;;;;;;;5.00;5.00;;;;;25.32;45.95;101864.19;5054585;28;45441;-75
2022/07/12 03:37:09;;;;;;;;;5.00;5.00;;;;;25.29;45.99;101861.75;5056379;28;45510;-75
2022/07/12 03:39:35;;;;;;;;;5.00;5.00;;;;;25.30;45.83;101870.81;5036307;28;48141;-75
2022/07/12 03:42:00;;;;;;;;;5.33;5.33;;;;;25.18;46.03;101849.03;5029292;28;45432;-74
2022/07/12 03:44:25;;;;;;;;;6.33;6.33;;;;;25.22;46.52;101864.16;5056080;28;45452;-75
2022/07/12 03:46:51;;;;;;;;;7.00;7.00;;;;;25.14;45.81;101858.47;5044293;28;45463;-75
2022/07/12 03:49:16;;;;;;;;;7.00;6.67;;;;;25.20;46.56;101871.59;5051055;28;46929;-75
2022/07/12 03:51:41;;;;;;;;;8.67;8.67;;;;;25.17;46.52;101881.88;5053129;28;45472;-75
2022/07/12 03:54:07;;;;;;;;;8.00;7.00;;;;;25.12;46.45;101885.00;5051131;28;45482;-75
2022/07/12 03:59:18;;;;;;;;;7.00;6.00;;;;;25.08;46.81;101888.19;5055134;28;45648;-75
2022/07/12 04:01:44;;;;;;;;;8.00;8.00;;;;;25.05;46.74;101890.16;5055170;28;45460;-74
2022/07/12 04:04:09;;;;;;;;;6.67;6.67;;;;;25.01;46.46;101896.03;5052671;28;45597;-75
2022/07/12 04:06:34;;;;;;;;;9.67;8.33;;;;;24.84;46.67;101870.19;5055133;28;45508;-75
2022/07/12 04:08:59;;;;;;;;;8.67;8.67;;;;;24.92;47.24;101900.41;5055033;28;46161;-75
2022/07/12 04:11:25;;;;;;;;;8.00;8.00;;;;;24.76;47.41;101870.00;5054797;28;45356;-75
2022/07/12 04:13:51;;;;;;;;;8.33;6.33;;;;;24.84;47.61;101892.00;5071411;28;45470;-75
2022/07/12 04:16:16;;;;;;;;;7.33;7.33;;;;;24.83;47.62;101901.19;5075399;28;45646;-75
2022/07/12 04:18:41;;;;;;;;;8.00;6.00;;;;;24.82;47.68;101904.94;5074562;27;46261;-74
2022/07/12 04:21:07;;;;;;;;;8.00;6.67;;;;;24.79;47.10;101899.72;5073288;27;45378;-75
2022/07/12 04:23:32;;;;;;;;;6.67;6.67;;;;;24.57;47.28;101862.53;5074718;27;45309;-75
2022/07/12 04:25:58;;;;;;;;;8.33;6.00;;;;;24.73;47.26;101886.63;5073008;27;45559;-75
2022/07/12 04:28:24;;;;;;;;;5.00;5.00;;;;;24.78;47.37;101904.31;5074730;28;46542;-75
2022/07/12 04:30:49;;;;;;;;;5.00;4.67;;;;;24.73;47.58;101901.13;5074930;27;45556;-74
2022/07/12 04:33:15;;;;;;;;;7.33;7.33;;;;;24.74;47.61;101901.97;5077233;27;45429;-74
2022/07/12 04:35:40;;;;;;;;;6.00;6.00;;;;;24.61;47.73;101883.94;5078337;27;45329;-75
2022/07/12 04:38:07;;;;;;;;;6.33;6.33;;;;;24.73;47.50;101903.84;5069037;28;48346;-74
2022/07/12 04:40:33;;;;;;;;;5.00;5.00;;;;;24.72;47.70;101903.97;5078213;28;45407;-74
2022/07/12 04:42:58;;;;;;;;;5.67;5.67;;;;;24.69;47.80;101902.38;5077330;27;45688;-74
2022/07/12 04:45:23;;;;;;;;;6.00;4.25;;;;;24.56;48.08;101897.13;5077501;27;45412;-75
2022/07/12 04:47:49;;;;;;;;;5.00;5.00;;;;;24.56;48.28;101907.13;5076879;28;45452;-75
2022/07/12 04:50:14;;;;;;;;;6.00;5.00;;;;;24.43;48.21;101899.09;5074798;27;45532;-74
2022/07/12 04:52:39;;;;;;;;;5.33;5.33;;;;;24.44;48.25;101909.88;5074663;27;45509;-75
2022/07/12 04:55:06;;;;;;;;;5.33;5.33;;;;;24.49;48.67;101905.91;5073538;27;45498;-75
2022/07/12 04:57:32;;;;;;;;;6.67;6.00;;;;;24.53;48.33;101908.25;5076092;28;48250;-75
2022/07/12 04:59:57;;;;;;;;;5.00;5.00;;;;;24.47;48.62;101897.88;5071617;27;45390;-75
2022/07/12 05:02:23;;;;;;;;;7.67;6.00;;;;;24.58;48.69;101907.88;5077065;27;45418;-75
2022/07/12 05:04:48;;;;;;;;;8.00;4.00;;;;;24.58;48.54;101916.03;5075709;28;45448;-75
2022/07/12 05:07:13;;;;;;;;;6.00;4.33;;;;;24.63;48.74;101921.97;5075339;28;46110;-75
2022/07/12 05:09:39;;;;;;;;;7.67;6.33;;;;;24.64;48.25;101918.25;5078072;27;45572;-75
2022/07/12 05:12:05;;;;;;;;;5.00;5.00;;;;;24.68;48.17;101921.56;5077786;28;45717;-75
2022/07/12 05:14:30;;;;;;;;;5.00;4.00;;;;;24.70;48.10;101925.94;5078859;27;45647;-70
2022/07/12 05:16:56;;;;;;;;;6.00;4.00;;;;;24.72;48.17;101928.50;5076636;27;46147;-70
2022/07/12 05:19:21;;;;;;;;;5.00;5.00;;;;;24.77;48.19;101931.69;5068992;28;45447;-71
2022/07/12 05:21:47;;;;;;;;;5.00;4.00;;;;;24.80;47.82;101928.72;5077349;27;45644;-71
2022/07/12 05:24:12;;;;;;;;;4.00;4.00;;;;;24.71;48.11;101899.53;5077022;27;45526;-71
2022/07/12 05:26:38;;;;;;;;;6.00;4.00;;;;;24.84;48.20;101925.63;5075624;27;46320;-71
2022/07/12 05:29:03;;;;;;;;;6.33;5.00;;;;;24.92;47.50;101943.19;5076741;27;46088;-71
2022/07/12 05:31:29;;;;;;;;;4.00;4.00;;;;;24.96;47.98;101947.34;5076072;27;45713;-72
2022/07/12 05:33:54;;;;;;;;;5.33;5.33;;;;;24.99;47.75;101947.97;5066051;28;45414;-72
2022/07/12 05:36:20;;;;;;;;;6.00;6.00;;;;;24.97;47.30;101940.91;5064956;28;45491;-73
2022/07/12 05:38:46;;;;;;;;;4.00;4.00;;;;;25.05;47.75;101946.56;5076409;27;45561;-72
2022/07/12 05:41:12;;;;;;;;;5.67;5.67;;;;;25.09;47.85;101947.19;5076656;27;45537;-72
2022/07/12 05:43:38;;;;;;;;;5.00;5.00;;;;;25.07;47.89;101950.03;5075404;27;45542;-71
2022/07/12 05:46:03;;;;;;;;;6.00;6.00;;;;;25.05;47.40;101947.47;5076050;27;45421;-72
2022/07/12 05:48:29;;;;;;;;;6.33;5.67;;;;;25.09;47.19;101941.72;5076715;27;45348;-71
2022/07/12 05:50:54;;;;;;;;;5.00;4.00;;;;;25.16;47.44;101954.69;5077496;27;45695;-73
2022/07/12 05:53:23;;;;;;;;;4.00;4.00;;;;;25.18;47.49;101957.34;5074715;27;45475;-71
2022/07/12 05:55:52;;;;;;;;;4.33;4.00;;;;;25.19;46.81;101959.06;5072470;27;46304;-73
2022/07/12 05:58:19;;;;;;;;;4.00;4.00;;;;;25.10;47.18;101940.72;5072250;28;45758;-73
2022/07/12 06:00:44;;;;;;;;;6.00;4.00;;;;;25.22;47.41;101961.53;5065797;28;45851;-73
2022/07/12 06:03:11;;;;;;;;;5.00;5.00;;;;;25.18;46.86;101946.41;5076854;27;45468;-73
2022/07/12 06:05:36;;;;;;;;;4.33;4.00;;;;;25.24;46.69;101956.81;5081053;27;46224;-73
2022/07/12 06:08:02;;;;;;;;;5.00;5.00;;;;;25.37;46.81;101975.72;5074882;28;45450;-73
2022/07/12 06:10:27;;;;;;;;;4.00;4.00;;;;;25.40;46.33;101969.97;5075698;28;45565;-73
2022/07/12 06:12:53;;;;;;;;;5.33;4.67;;;;;25.43;46.44;101967.00;5072724;28;45579;-73
2022/07/12 06:15:18;;;;;;;;;7.00;6.00;;;;;25.47;46.29;101973.88;5068233;28;47237;-73
2022/07/12 06:17:44;;;;;;;;;6.33;5.00;;;;;25.42;46.60;101977.03;5074236;27;45548;-73
2022/07/12 06:20:10;;;;;;;;;5.00;3.00;;;;;25.36;46.69;101965.81;5069025;27;45564;-73
2022/07/12 06:22:35;;;;;;;;;4.33;4.00;;;;;25.38;46.24;101966.50;5082522;27;45477;-74
2022/07/12 06:25:01;;;;;;;;;6.00;4.00;;;;;25.34;46.67;101954.16;5074184;27;46080;-73
2022/07/12 06:27:26;;;;;;;;;4.75;4.75;;;;;25.50;46.30;101976.38;5075318;27;45398;-75
2022/07/12 06:29:52;;;;;;;;;4.00;4.00;;;;;25.41;46.16;101956.19;5076945;27;45415;-73
2022/07/12 06:32:18;;;;;;;;;3.25;3.25;;;;;25.55;46.26;101976.81;5074620;28;45376;-74
2022/07/12 06:34:44;;;;;;;;;5.00;5.00;;;;;25.55;47.09;101970.50;5076802;27;45412;-73
2022/07/12 06:37:09;;;;;;;;;4.00;3.33;;;;;25.59;46.47;101981.03;5076233;28;45664;-74
2022/07/12 06:39:36;;;;;;;;;6.00;6.00;;;;;25.60;46.95;101976.44;5074464;27;45379;-74
2022/07/12 06:42:03;;;;;;;;;5.00;3.00;;;;;25.58;46.10;101971.09;5074206;27;45407;-71
2022/07/12 06:44:30;;;;;;;;;4.33;4.33;;;;;25.57;46.68;101973.97;5075204;28;45790;-72
2022/07/12 06:46:56;;;;;;;;;6.33;5.00;;;;;25.51;46.55;101971.78;5075636;27;45848;-71
2022/07/12 06:49:21;;;;;;;;;5.33;4.67;;;;;25.52;47.00;101978.94;5051529;28;45751;-72
2022/07/12 06:51:47;;;;;;;;;2.67;2.67;;;;;25.52;47.08;101970.75;5074752;28;45793;-71
2022/07/12 06:54:12;;;;;;;;;6.33;5.33;;;;;25.49;46.35;101977.34;5073380;27;47364;-71
2022/07/12 06:56:37;;;;;;;;;7.67;7.00;;;;;25.53;47.43;101978.81;5074405;28;45582;-70
2022/07/12 06:59:02;;;;;;;;;5.00;5.00;;;;;25.57;47.73;101971.25;5074793;27;45503;-70
2022/07/12 07:01:28;;;;;;;;;6.33;6.33;;;;;25.64;48.61;101984.22;5073775;27;45363;-72
2022/07/12 07:03:53;;;;;;;;;6.00;5.00;;;;;25.67;48.67;101983.94;5075301;28;46722;-72
2022/07/12 07:06:19;;;;;;;;;6.00;5.00;;;;;25.73;49.07;101990.75;5065154;28;45454;-74
2022/07/12 07:08:45;;;;;;;;;5.33;5.00;;;;;25.77;49.60;101986.72;5072013;28;46068;-74
2022/07/12 07:11:10;;;;;;;;;5.33;5.33;;;;;25.81;47.82;101985.44;5075736;27;45524;-74
2022/07/12 07:13:36;;;;;;;;;6.67;5.00;;;;;25.86;47.97;101985.03;5070775;27;45987;-74
2022/07/12 07:16:02;;;;;;;;;6.00;6.00;;;;;25.89;46.90;101987.50;5083740;27;45441;-74
2022/07/12 07:18:27;;;;;;;;;5.00;5.00;;;;;25.88;46.63;101986.66;5071770;28;46299;-73
2022/07/12 07:20:52;;;;;;;;;14.00;10.00;;;;;25.95;47.81;101986.13;5076596;28;45989;-73
2022/07/12 07:23:18;;;;;;;;;7.00;7.00;;;;;25.98;46.80;101986.69;5073062;27;46267;-73
2022/07/12 07:25:46;;;;;;;;;6.67;5.33;;;;;26.02;47.01;101988.16;5072744;27;45508;-74
2022/07/12 07:28:12;;;;;;;;;8.33;6.33;;;;;26.08;47.18;101979.41;5074713;28;45510;-74
2022/07/12 07:30:53;;;;;;;;;5.67;5.67;;;;;26.16;48.10;101992.38;5074162;27;45457;-73
2022/07/12 07:33:22;;;;;;;;;7.67;7.33;;;;;26.18;45.46;101997.72;5073077;28;47062;-74
2022/07/12 07:35:49;;;;;;;;;7.00;7.00;;;;;26.20;46.79;101993.84;5074428;28;45427;-74
2022/07/12 07:38:15;;;;;;;;;5.00;4.00;;;;;26.26;46.36;101992.41;5072829;28;45577;-74
2022/07/12 07:40:41;;;;;;;;;6.00;6.00;;;;;26.31;46.54;101987.38;5075899;28;45549;-73
2022/07/12 07:43:06;;;;;;;;;8.00;7.00;;;;;26.28;45.85;101985.78;5073653;27;46902;-73
2022/07/12 07:45:33;;;;;;;;;5.67;5.67;;;;;26.24;46.01;101983.47;5073067;28;45532;-74
2022/07/12 07:47:59;;;;;;;;;9.00;6.00;;;;;26.34;45.57;101984.38;5071510;28;45741;-74
2022/07/12 07:50:24;;;;;;;;;6.00;6.00;;;;;26.44;45.75;101998.09;5070113;28;45588;-74
2022/07/12 07:52:51;;;;;;;;;7.67;6.00;;;;;26.49;45.78;101996.63;5071951;28;45555;-74
2022/07/12 07:55:17;;;;;;;;;5.33;5.33;;;;;26.50;44.96;102006.59;5071887;27;45378;-73
2022/07/12 07:57:42;;;;;;;;;6.33;5.33;;;;;26.57;45.60;102000.56;5073877;27;45460;-73
2022/07/12 08:00:08;;;;;;;;;6.00;6.00;;;;;26.61;45.57;102008.34;5071462;28;45541;-72
2022/07/12 08:02:33;;;;;;;;;5.67;5.67;;;;;26.63;45.37;101994.56;5072439;28;47321;-73
2022/07/12 08:04:59;;;;;;;;;6.00;4.33;;;;;26.74;44.77;102005.38;5075002;28;45629;-74
2022/07/12 08:07:24;;;;;;;;;5.00;5.00;;;;;26.78;45.11;102015.00;5070363;27;45356;-74
2022/07/12 08:09:50;;;;;;;;;5.00;5.00;;;;;26.80;44.94;102014.88;5053922;28;45649;-73
2022/07/12 08:12:15;;;;;;;;;5.75;4.25;;;;;26.83;44.75;102009.09;5066691;27;46134;-73
2022/07/12 08:14:40;;;;;;;;;5.00;5.00;;;;;26.91;43.86;102012.84;5071096;27;45605;-74
2022/07/12 08:17:05;;;;;;;;;6.33;5.00;;;;;26.96;44.55;102001.47;5073268;27;45533;-73
2022/07/12 08:19:31;;;;;;;;;6.67;6.67;;;;;27.00;44.61;102002.94;5074545;27;46080;-73
2022/07/12 08:21:56;;;;;;;;;4.50;3.50;;;;;26.97;44.19;101989.50;5073813;28;46439;-73
2022/07/12 08:24:22;;;;;;;;;6.00;6.00;;;;;27.09;44.29;102013.00;5074780;27;45711;-73
2022/07/12 08:26:48;;;;;;;;;5.00;5.00;;;;;27.14;44.05;102007.09;5072808;28;46020;-73
2022/07/12 08:29:13;;;;;;;;;7.00;6.00;;;;;27.16;43.73;102007.84;5074259;27;45491;-73
2022/07/12 08:31:38;;;;;;;;;5.00;5.00;;;;;27.22;43.91;101998.19;5074031;28;46697;-73
2022/07/12 08:34:04;;;;;;;;;7.33;5.00;;;;;27.24;44.39;101999.78;5072535;28;49982;-73
2022/07/12 08:36:29;;;;;;;;;6.00;6.00;;;;;27.28;43.59;102000.38;5071739;27;45836;-73
2022/07/12 08:38:54;;;;;;;;;4.50;3.25;;;;;27.30;43.38;102001.06;5070898;27;45646;-73
2022/07/12 08:41:20;;;;;;;;;6.67;6.67;;;;;27.38;43.41;102001.19;5071883;27;45592;-73
2022/07/12 08:43:45;;;;;;;;;5.67;4.67;;;;;27.55;43.24;101994.09;5071979;27;45544;-73
2022/07/12 08:46:13;;;;;;;;;6.25;6.25;;;;;27.72;42.93;101990.59;5071543;27;45504;-73
2022/07/12 08:48:41;;;;;;;;;5.00;5.00;;;;;28.33;41.48;102002.03;5072364;27;47200;-73
2022/07/12 08:51:09;;;;;;;;;4.50;4.50;;;;;29.29;39.93;102001.50;5069329;27;45813;-73
2022/07/12 08:53:35;;;;;;;;;7.50;5.50;;;;;30.17;38.04;101993.16;5067599;27;45491;-73
2022/07/12 08:56:02;;;;;;;;;3.25;3.00;;;;;31.30;34.97;101999.09;5069600;27;45497;-75
2022/07/12 08:58:27;;;;;;;;;6.00;6.00;;;;;33.84;31.51;102004.09;5064509;27;45745;-73
2022/07/12 09:00:52;;;;;;;;;4.00;4.00;;;;;36.47;27.97;101992.28;5071168;27;52242;-73
2022/07/12 09:03:18;;;;;;;;;4.25;4.25;;;;;38.87;25.42;101991.97;5072340;27;45527;-76
2022/07/12 09:05:57;;;;;;;;;4.00;4.00;;;;;40.33;23.19;101981.31;5071212;27;45456;-75
2022/07/12 09:08:34;;;;;;;;;7.75;4.50;;;;;41.48;21.54;101999.72;5063769;28;45678;-75
2022/07/12 09:11:02;;;;;;;;;6.33;4.00;;;;;42.06;20.74;102002.75;5067718;28;45532;-75
2022/07/12 09:13:53;;;;;;;;;3.75;3.75;;;;;42.77;20.08;102008.94;5073925;28;45576;-79
2022/07/12 09:16:24;;;;;;;;;5.25;4.75;;;;;43.68;19.86;102011.66;5068597;27;45605;-79
2022/07/12 09:18:51;;;;;;;;;4.25;4.25;;;;;44.20;19.27;101997.16;5074898;27;45726;-77
2022/07/12 09:21:27;;;;;;;;;2.00;2.00;;;;;44.64;17.30;101999.09;5070394;27;45546;-73
2022/07/12 09:23:55;;;;;;;;;3.75;3.75;;;;;45.19;17.67;102005.50;5074879;28;45521;-73
2022/07/12 09:26:21;;;;;;;;;3.50;3.50;;;;;46.17;16.36;102013.47;5077752;27;45563;-73
2022/07/12 09:28:49;;;;;;;;;3.33;2.67;;;;;46.94;15.96;102016.47;5076296;27;45541;-74
2022/07/12 09:31:14;;;;;;;;;4.00;3.00;;;;;47.37;15.27;102031.19;5070776;28;47563;-73
2022/07/12 09:36:24;;;;;;;;;4.67;3.00;;;;;49.20;13.52;102024.94;5069742;28;45533;-73
2022/07/12 09:38:54;;;;;;;;;3.67;2.00;;;;;50.02;12.58;102029.78;5074127;27;45554;-74
2022/07/12 09:41:23;;;;;;;;;3.67;3.67;;;;;50.12;12.82;102031.63;5073069;27;46271;-74
2022/07/12 09:43:49;;;;;;;;;2.33;2.33;;;;;49.98;12.43;102034.31;5076955;27;45731;-74
2022/07/12 09:46:16;;;;;;;;;3.67;3.67;;;;;50.88;11.81;102019.16;5074586;27;45533;-74
2022/07/12 09:48:42;;;;;;;;;2.00;2.00;;;;;51.34;11.70;102036.56;5055373;28;45621;-73
2022/07/12 09:51:09;;;;;;;;;3.33;1.67;;;;;51.77;11.76;102022.94;5082625;27;45966;-74
2022/07/12 09:53:42;;;;;;;;;2.33;1.00;;;;;52.27;11.75;102042.94;5076267;28;45561;-74
2022/07/12 09:56:11;;;;;;;;;2.33;2.33;;;;;52.55;10.85;102045.72;5063684;28;45513;-73
2022/07/12 09:58:47;;;;;;;;;0.00;0.00;;;;;52.58;10.98;102042.22;5075752;28;45419;-73
2022/07/12 10:01:15;;;;;;;;;3.00;2.00;;;;;52.63;10.88;102044.09;5084612;27;45856;-74
2022/07/12 10:03:42;;;;;;;;;2.67;2.67;;;;;52.63;11.08;102033.56;5076688;28;45682;-74
2022/07/12 10:06:09;;;;;;;;;2.33;2.33;;;;;53.00;10.14;102042.91;5072931;27;45500;-75
2022/07/12 10:08:35;;;;;;;;;1.00;1.00;;;;;53.12;9.72;102045.19;5070341;27;45590;-75
2022/07/12 10:11:00;;;;;;;;;1.00;1.00;;;;;52.64;9.65;102043.78;5070954;27;45568;-75
2022/07/12 10:13:27;;;;;;;;;1.67;1.00;;;;;51.91;9.63;102037.16;5074040;27;45663;-74
2022/07/12 10:16:00;;;;;;;;;2.33;2.00;;;;;51.43;10.33;102031.84;5075541;28;46820;-74
2022/07/12 10:18:27;;;;;;;;;2.00;2.00;;;;;51.41;10.05;102034.16;5071511;27;45677;-72
2022/07/12 10:20:53;;;;;;;;;3.00;2.00;;;;;50.96;10.35;102034.63;5076344;27;46979;-74
2022/07/12 10:23:35;;;;;;;;;2.00;2.00;;;;;50.56;10.72;102025.63;5073348;27;45964;-72
2022/07/12 10:26:24;;;;;;;;;1.33;1.00;;;;;50.26;11.44;102032.56;5069644;28;45580;-72
2022/07/12 10:29:03;;;;;;;;;2.00;2.00;;;;;49.85;11.09;102027.38;5076188;27;45418;-72
2022/07/12 10:31:32;;;;;;;;;1.33;1.33;;;;;49.39;11.37;102028.75;5071949;27;45489;-73
2022/07/12 10:34:21;;;;;;;;;2.67;2.67;;;;;49.14;11.65;102029.78;5073847;28;46052;-74
2022/07/12 10:36:55;;;;;;;;;4.33;4.33;;;;;48.66;11.47;102023.09;5076108;27;45427;-79
2022/07/12 10:39:25;;;;;;;;;3.00;1.00;;;;;48.33;11.55;102008.56;5072472;27;45513;-75
2022/07/12 10:42:05;;;;;;;;;1.67;1.00;;;;;48.11;11.66;102004.13;5070943;28;46477;-75
2022/07/12 10:44:33;;;;;;;;;3.00;3.00;;;;;47.96;12.23;101999.41;5092764;27;45694;-83
2022/07/12 10:47:02;;;;;;;;;1.67;1.67;;;;;47.48;11.74;101998.13;5068423;27;45798;-76
2022/07/12 10:49:31;;;;;;;;;2.67;2.00;;;;;46.86;12.21;101992.50;5083418;27;45417;-77
2022/07/12 10:52:26;;;;;;;;;2.00;2.00;;;;;46.53;12.81;101993.84;5076384;27;46177;-77
2022/07/12 10:54:54;;;;;;;;;2.00;2.00;;;;;46.24;12.95;101983.03;5058675;28;45657;-77
2022/07/12 10:57:43;;;;;;;;;2.00;1.00;;;;;45.93;14.32;101996.16;5074342;28;45481;-77
2022/07/12 11:00:09;;;;;;;;;2.00;2.00;;;;;45.72;13.54;101978.31;5063232;28;45439;-76
2022/07/12 11:02:35;;;;;;;;;1.33;1.33;;;;;45.43;14.06;101983.47;5068346;28;47368;-76
2022/07/12 11:05:01;;;;;;;;;1.00;1.00;;;;;45.00;13.57;101982.56;5076502;28;45472;-77
2022/07/12 11:07:27;;;;;;;;;3.00;3.00;;;;;44.54;13.88;101976.50;5076755;27;45720;-77
2022/07/12 11:09:54;;;;;;;;;2.67;2.67;;;;;44.09;14.14;101969.19;5067521;28;45522;-77
2022/07/12 11:12:19;;;;;;;;;1.33;1.33;;;;;43.58;13.98;101974.97;5074162;28;45731;-78
2022/07/12 11:14:50;;;;;;;;;4.00;3.00;;;;;42.91;14.91;101979.50;5060504;28;45652;-79
2022/07/12 11:17:24;;;;;;;;;3.67;2.00;;;;;42.31;15.45;101966.84;5076788;27;45474;-78
2022/07/12 11:19:49;;;;;;;;;2.00;2.00;;;;;41.99;15.26;101972.09;5068720;28;45378;-75
2022/07/12 11:22:18;;;;;;;;;3.00;3.00;;;;;41.66;15.23;101973.59;5075973;27;46633;-75
2022/07/12 11:24:44;;;;;;;;;3.00;3.00;;;;;41.28;15.12;101971.25;5076375;28;45492;-75
2022/07/12 11:27:13;;;;;;;;;3.00;3.00;;;;;40.97;15.99;101973.25;5076603;28;45501;-75